Time;durP1;ratioP1;P1;durP2;ratioP2;P2;SDS_P1;SDS_P2;PMS_P1;PMS_P2;Temp;Humidity;BMP_temperature;BMP_pressure;BME280_temperature;BME280_humidity;BME280_pressure;Samples;Min_cycle;Max_cycle;Signal;HPM_P1;HPM_P2
2023/08/17 00:00:18;;;;;;;7.25;2.90;;;15.90;99.90;;;;;;5105733;28;20040;-75
2023/08/17 00:02:43;;;;;;;9.75;2.83;;;15.90;99.90;;;;;;5095454;28;20494;-75
2023/08/17 00:05:09;;;;;;;7.00;3.28;;;15.90;99.90;;;;;;5097954;28;20032;-75
2023/08/17 00:07:36;;;;;;;8.52;2.90;;;16.00;99.90;;;;;;5098637;28;20067;-77
2023/08/17 00:10:02;;;;;;;8.43;3.03;;;15.90;99.90;;;;;;5097586;28;20090;-77
2023/08/17 00:12:28;;;;;;;5.43;2.90;;;15.90;99.90;;;;;;5097473;28;20101;-76
2023/08/17 00:14:54;;;;;;;8.35;2.70;;;16.00;99.90;;;;;;5097420;28;20086;-76
2023/08/17 00:17:20;;;;;;;6.78;2.63;;;15.90;99.90;;;;;;5096918;28;20051;-75
2023/08/17 00:19:46;;;;;;;8.88;3.35;;;16.00;99.90;;;;;;5096986;28;20089;-76
2023/08/17 00:22:11;;;;;;;6.65;2.90;;;15.90;99.90;;;;;;5098935;28;20066;-77
2023/08/17 00:24:37;;;;;;;7.85;3.58;;;15.90;99.90;;;;;;5099570;28;20475;-76
2023/08/17 00:27:03;;;;;;;7.47;2.90;;;15.90;99.90;;;;;;5097032;28;20165;-77
2023/08/17 00:29:30;;;;;;;4.97;2.88;;;16.00;99.90;;;;;;5096710;28;20036;-76
2023/08/17 00:31:55;;;;;;;13.00;3.28;;;15.90;99.90;;;;;;5097030;28;20040;-77
2023/08/17 00:34:21;;;;;;;7.25;3.05;;;16.00;99.90;;;;;;5096193;28;20043;-77
2023/08/17 00:36:47;;;;;;;5.75;2.70;;;15.90;99.90;;;;;;5095979;28;20486;-76
2023/08/17 00:39:14;;;;;;;9.80;2.95;;;15.90;99.90;;;;;;5095985;28;20040;-77
2023/08/17 00:41:40;;;;;;;7.22;2.85;;;15.90;99.90;;;;;;5096441;28;20044;-77
2023/08/17 00:44:06;;;;;;;8.70;3.15;;;16.00;99.90;;;;;;5096356;28;20051;-77
2023/08/17 00:46:32;;;;;;;6.20;3.20;;;16.00;99.90;;;;;;5078208;28;20052;-77
2023/08/17 00:48:58;;;;;;;8.80;3.40;;;16.00;99.90;;;;;;5096039;28;20312;-77
2023/08/17 00:51:25;;;;;;;5.82;3.00;;;15.90;99.90;;;;;;5094958;28;20119;-77
2023/08/17 00:53:52;;;;;;;6.55;2.88;;;15.90;99.90;;;;;;5096099;28;20089;-77
2023/08/17 00:56:18;;;;;;;6.05;2.63;;;15.90;99.90;;;;;;5096145;28;20489;-77
2023/08/17 00:58:44;;;;;;;7.30;3.13;;;15.90;99.90;;;;;;5095495;28;20036;-77
2023/08/17 01:01:09;;;;;;;6.22;2.97;;;15.90;99.90;;;;;;5095347;28;20042;-77
2023/08/17 01:03:35;;;;;;;8.02;3.10;;;15.80;99.90;;;;;;5094488;28;20078;-76
2023/08/17 01:06:02;;;;;;;6.65;2.78;;;15.80;99.90;;;;;;5095511;28;20122;-76
2023/08/17 01:08:29;;;;;;;9.07;3.15;;;15.80;99.90;;;;;;5094435;28;20040;-77
2023/08/17 01:11:13;;;;;;;10.17;3.40;;;15.80;99.90;;;;;;5095720;28;20044;-77
2023/08/17 01:13:49;;;;;;;9.93;3.08;;;15.80;99.90;;;;;;5094281;28;20150;-77
2023/08/17 01:16:40;;;;;;;8.18;2.97;;;15.70;99.90;;;;;;5095169;28;20117;-77
2023/08/17 01:19:09;;;;;;;8.77;2.78;;;15.70;99.90;;;;;;5095497;28;20111;-77
2023/08/17 01:21:43;;;;;;;6.85;2.88;;;15.70;99.90;;;;;;5093898;28;20088;-77
2023/08/17 01:24:11;;;;;;;7.10;2.92;;;15.70;99.90;;;;;;5095630;28;20048;-77
2023/08/17 01:26:36;;;;;;;7.45;3.17;;;15.70;99.90;;;;;;5077062;28;20048;-77
2023/08/17 01:29:02;;;;;;;9.02;3.28;;;15.60;99.90;;;;;;5093604;28;20040;-77
2023/08/17 01:32:14;;;;;;;8.05;3.05;;;15.60;99.90;;;;;;5094298;28;20135;-77
2023/08/17 01:34:44;;;;;;;8.88;3.17;;;15.60;99.90;;;;;;5094363;28;20050;-76
2023/08/17 01:37:12;;;;;;;6.75;2.90;;;15.60;99.90;;;;;;5095553;28;20666;-77
2023/08/17 01:39:44;;;;;;;9.38;3.35;;;15.60;99.90;;;;;;5094609;28;20443;-77
2023/08/17 01:42:13;;;;;;;5.63;3.10;;;15.60;99.90;;;;;;5095585;28;20048;-77
2023/08/17 01:44:39;;;;;;;6.25;2.65;;;15.60;99.90;;;;;;5095465;28;20125;-76
2023/08/17 01:47:05;;;;;;;7.43;3.10;;;15.50;99.90;;;;;;5093451;28;20046;-76
2023/08/17 01:49:31;;;;;;;9.75;3.25;;;15.60;99.90;;;;;;5094985;28;20036;-75
2023/08/17 01:51:57;;;;;;;7.15;2.60;;;15.50;99.90;;;;;;5094565;28;20071;-76
2023/08/17 01:54:23;;;;;;;8.98;3.25;;;15.50;99.90;;;;;;5094483;28;20046;-76
2023/08/17 01:56:49;;;;;;;5.88;2.70;;;15.50;99.90;;;;;;5094742;28;20040;-76
2023/08/17 01:59:14;;;;;;;7.07;3.13;;;15.50;99.90;;;;;;5094702;28;20046;-77
2023/08/17 02:01:44;;;;;;;10.07;2.90;;;15.50;99.90;;;;;;5094357;28;20119;-76
2023/08/17 02:04:09;;;;;;;10.00;3.00;;;15.50;99.90;;;;;;5092976;28;20072;-76
2023/08/17 02:06:35;;;;;;;6.10;2.80;;;15.50;99.90;;;;;;5094013;28;20416;-76
2023/08/17 02:09:02;;;;;;;12.68;2.80;;;15.50;99.90;;;;;;5092883;28;20032;-76
2023/08/17 02:11:30;;;;;;;13.02;3.80;;;15.50;99.90;;;;;;5111462;28;20086;-76
2023/08/17 02:13:56;;;;;;;7.68;3.05;;;15.50;99.90;;;;;;5113827;28;20051;-76
2023/08/17 02:16:22;;;;;;;5.93;3.10;;;15.50;99.90;;;;;;5114588;28;20397;-76
2023/08/17 02:18:48;;;;;;;7.75;2.90;;;15.50;99.90;;;;;;5109924;27;20068;-76
2023/08/17 02:21:14;;;;;;;5.53;2.90;;;15.50;99.90;;;;;;5092520;28;20036;-76
2023/08/17 02:23:40;;;;;;;8.50;2.78;;;15.50;99.90;;;;;;5093002;28;20093;-76
2023/08/17 02:26:08;;;;;;;6.50;2.60;;;15.50;99.90;;;;;;5093934;28;20055;-76
2023/08/17 02:28:34;;;;;;;9.75;3.30;;;15.50;99.90;;;;;;5093503;28;20051;-76
2023/08/17 02:31:00;;;;;;;6.07;2.53;;;15.50;99.90;;;;;;5094175;28;20036;-76
2023/08/17 02:33:26;;;;;;;9.75;3.15;;;15.50;99.90;;;;;;5094311;28;20048;-77
2023/08/17 02:35:52;;;;;;;7.43;2.60;;;15.50;99.90;;;;;;5094348;28;20048;-76
2023/08/17 02:38:18;;;;;;;8.98;2.85;;;15.60;99.90;;;;;;5077096;28;20040;-77
2023/08/17 02:40:44;;;;;;;8.13;2.60;;;15.60;99.90;;;;;;5092563;28;20421;-76
2023/08/17 02:43:10;;;;;;;5.93;2.25;;;15.60;99.90;;;;;;5093556;28;20181;-76
2023/08/17 02:45:35;;;;;;;9.57;2.78;;;15.50;99.90;;;;;;5093780;28;20044;-76
2023/08/17 02:48:01;;;;;;;8.77;2.55;;;15.60;99.90;;;;;;5092133;28;20043;-76
2023/08/17 02:50:27;;;;;;;8.73;2.58;;;15.60;99.90;;;;;;5093897;28;20047;-76
2023/08/17 02:52:52;;;;;;;8.10;2.60;;;15.60;99.90;;;;;;5092684;28;20051;-76
2023/08/17 02:55:18;;;;;;;7.63;2.75;;;15.60;99.90;;;;;;5092945;28;20102;-76
2023/08/17 02:57:47;;;;;;;10.63;2.65;;;15.60;99.90;;;;;;5092435;28;20595;-76
2023/08/17 03:00:13;;;;;;;7.30;2.67;;;15.60;99.90;;;;;;5093132;28;20096;-76
2023/08/17 03:02:40;;;;;;;7.78;2.75;;;15.60;99.90;;;;;;5092842;28;20070;-76
2023/08/17 03:05:05;;;;;;;6.75;2.50;;;15.60;99.90;;;;;;5093451;28;20036;-76
2023/08/17 03:07:31;;;;;;;9.88;2.78;;;15.70;99.90;;;;;;5093629;28;20048;-76
2023/08/17 03:09:57;;;;;;;7.43;2.60;;;15.70;99.90;;;;;;5095492;28;20040;-76
2023/08/17 03:12:22;;;;;;;4.93;2.67;;;15.60;99.90;;;;;;5113951;28;20104;-76
2023/08/17 03:14:48;;;;;;;7.47;2.53;;;15.60;99.90;;;;;;5113845;28;20050;-76
2023/08/17 03:17:13;;;;;;;10.18;3.08;;;15.60;99.90;;;;;;5114118;28;20088;-76
2023/08/17 03:19:39;;;;;;;9.95;3.00;;;15.60;99.90;;;;;;5091482;28;20482;-76
2023/08/17 03:22:06;;;;;;;7.80;2.65;;;15.50;99.90;;;;;;5092254;28;20036;-75
2023/08/17 03:24:32;;;;;;;10.25;3.00;;;15.60;99.90;;;;;;5075760;28;20115;-76
2023/08/17 03:26:59;;;;;;;6.47;2.95;;;15.60;99.90;;;;;;5111401;28;20130;-76
2023/08/17 03:29:26;;;;;;;9.10;2.90;;;15.60;99.90;;;;;;5111398;28;20048;-76
2023/08/17 03:31:51;;;;;;;5.93;2.88;;;15.50;99.90;;;;;;5113264;28;20047;-76
2023/08/17 03:34:17;;;;;;;7.55;2.60;;;15.50;99.90;;;;;;5113016;28;20505;-76
2023/08/17 03:36:43;;;;;;;6.10;2.20;;;15.50;99.90;;;;;;5111007;28;20051;-76
2023/08/17 03:39:08;;;;;;;7.97;2.60;;;15.50;99.90;;;;;;5112364;28;20039;-76
2023/08/17 03:41:36;;;;;;;6.20;2.10;;;15.60;99.90;;;;;;5115736;28;20123;-76
2023/08/17 03:44:05;;;;;;;4.47;2.03;;;15.50;99.90;;;;;;5111925;28;20051;-76
2023/08/17 03:46:31;;;;;;;8.18;2.63;;;15.50;99.90;;;;;;5095629;28;20115;-76
2023/08/17 03:48:57;;;;;;;8.43;2.53;;;15.50;99.90;;;;;;5095402;28;20520;-76
2023/08/17 03:51:22;;;;;;;5.32;2.40;;;15.40;99.90;;;;;;5095231;28;20489;-76
2023/08/17 03:53:48;;;;;;;4.05;2.28;;;15.50;99.90;;;;;;5095269;28;20040;-76
2023/08/17 03:56:14;;;;;;;6.82;2.50;;;15.50;99.90;;;;;;5092235;28;20394;-76
2023/08/17 03:58:40;;;;;;;10.52;3.20;;;15.40;99.90;;;;;;5095478;28;20044;-76
2023/08/17 04:01:06;;;;;;;7.07;3.05;;;15.40;99.90;;;;;;5097175;28;20050;-77
2023/08/17 04:03:32;;;;;;;6.03;2.95;;;15.40;99.90;;;;;;5095346;28;20119;-76
2023/08/17 04:05:58;;;;;;;7.22;3.10;;;15.40;99.90;;;;;;5095811;28;20036;-76
2023/08/17 04:08:23;;;;;;;6.57;2.45;;;15.40;99.90;;;;;;5096471;28;20089;-76
2023/08/17 04:10:49;;;;;;;11.32;3.33;;;15.40;99.90;;;;;;5112562;28;20036;-77
2023/08/17 04:13:14;;;;;;;9.80;3.80;;;15.40;99.90;;;;;;5096902;28;20051;-76
2023/08/17 04:15:40;;;;;;;8.38;3.15;;;15.30;99.90;;;;;;5097153;28;20044;-76
2023/08/17 04:18:06;;;;;;;12.02;3.92;;;15.30;99.90;;;;;;5095082;28;20043;-76
2023/08/17 04:20:31;;;;;;;6.88;3.00;;;15.30;99.90;;;;;;5096382;28;20151;-76
2023/08/17 04:22:57;;;;;;;7.85;3.35;;;15.30;99.90;;;;;;5096751;28;20035;-75
2023/08/17 04:25:23;;;;;;;8.05;2.83;;;15.30;99.90;;;;;;5096870;28;20051;-76
2023/08/17 04:27:48;;;;;;;7.80;3.22;;;15.30;99.90;;;;;;5095261;28;20048;-76
2023/08/17 04:30:14;;;;;;;8.13;3.08;;;15.30;99.90;;;;;;5096381;28;20501;-75
2023/08/17 04:32:39;;;;;;;7.72;3.13;;;15.30;99.90;;;;;;5096388;28;20044;-77
2023/08/17 04:35:05;;;;;;;8.63;3.83;;;15.20;99.90;;;;;;5096137;28;20036;-76
2023/08/17 04:37:31;;;;;;;5.30;2.80;;;15.20;99.90;;;;;;5094558;28;20544;-76
2023/08/17 04:39:57;;;;;;;12.43;3.50;;;15.20;99.90;;;;;;5096251;28;20036;-76
2023/08/17 04:42:24;;;;;;;7.68;3.35;;;15.20;99.90;;;;;;5096368;28;20040;-76
2023/08/17 04:44:50;;;;;;;9.52;3.38;;;15.30;99.90;;;;;;5095231;28;20056;-76
2023/08/17 04:47:16;;;;;;;12.70;3.70;;;15.20;99.90;;;;;;5096626;28;20409;-76
2023/08/17 04:49:41;;;;;;;8.80;3.30;;;15.20;99.90;;;;;;5096087;28;20050;-77
2023/08/17 04:52:07;;;;;;;6.88;2.90;;;15.20;99.90;;;;;;5095287;28;20082;-77
2023/08/17 04:54:33;;;;;;;7.90;2.65;;;15.20;99.90;;;;;;5096995;28;20048;-77
2023/08/17 04:56:58;;;;;;;8.40;3.00;;;15.30;99.90;;;;;;5094716;28;20067;-77
2023/08/17 04:59:24;;;;;;;5.20;2.60;;;15.20;99.90;;;;;;5112195;28;20448;-76
2023/08/17 05:01:50;;;;;;;8.20;3.53;;;15.30;99.90;;;;;;5095402;28;20094;-75
2023/08/17 05:04:15;;;;;;;8.05;3.20;;;15.30;99.90;;;;;;5098281;28;20100;-77
2023/08/17 05:06:42;;;;;;;7.10;2.70;;;15.30;99.90;;;;;;5096809;28;20044;-77
2023/08/17 05:09:08;;;;;;;12.50;3.35;;;15.30;99.90;;;;;;5079553;28;20478;-77
2023/08/17 05:11:33;;;;;;;9.52;2.92;;;15.30;99.90;;;;;;5099588;28;20040;-76
2023/08/17 05:13:59;;;;;;;12.40;3.05;;;15.20;99.90;;;;;;5100432;28;20051;-77
2023/08/17 05:16:25;;;;;;;10.25;3.15;;;15.20;99.90;;;;;;5099613;28;20044;-77
2023/08/17 05:18:51;;;;;;;9.68;3.15;;;15.20;99.90;;;;;;5100064;28;20042;-76
2023/08/17 05:21:16;;;;;;;4.65;2.53;;;15.30;99.90;;;;;;5100369;28;20180;-77
2023/08/17 05:23:42;;;;;;;6.75;2.92;;;15.20;99.90;;;;;;5117678;28;20067;-77
2023/08/17 05:26:08;;;;;;;11.35;2.67;;;15.30;99.90;;;;;;5107835;28;20067;-77
2023/08/17 05:28:34;;;;;;;10.77;2.75;;;15.30;99.90;;;;;;5079249;28;20043;-77
2023/08/17 05:31:06;;;;;;;8.32;2.88;;;15.30;99.90;;;;;;5094916;28;20036;-77
2023/08/17 05:33:32;;;;;;;10.57;2.97;;;15.40;99.90;;;;;;5076882;28;20127;-76
2023/08/17 05:35:58;;;;;;;9.05;2.78;;;15.50;99.90;;;;;;5101417;28;20074;-76
2023/08/17 05:38:23;;;;;;;5.85;2.97;;;15.50;99.90;;;;;;5115674;28;20039;-76
2023/08/17 05:40:55;;;;;;;6.63;2.42;;;15.60;99.90;;;;;;5115566;28;20485;-76
2023/08/17 05:43:21;;;;;;;6.18;2.28;;;15.80;99.90;;;;;;5114852;28;20039;-76
2023/08/17 05:45:47;;;;;;;7.80;2.42;;;15.90;99.90;;;;;;5113995;28;20346;-76
2023/08/17 05:48:13;;;;;;;7.70;2.20;;;16.00;99.90;;;;;;5114137;28;20067;-77
2023/08/17 05:50:44;;;;;;;7.72;2.28;;;16.00;99.90;;;;;;5115067;28;20115;-76
2023/08/17 05:53:09;;;;;;;5.43;2.45;;;16.10;99.90;;;;;;5110092;28;20040;-77
2023/08/17 05:55:35;;;;;;;11.52;2.70;;;16.30;99.90;;;;;;5094059;28;20055;-77
2023/08/17 05:58:03;;;;;;;6.07;2.42;;;16.50;99.90;;;;;;5095617;28;20339;-76
2023/08/17 06:00:29;;;;;;;8.00;2.20;;;16.60;99.90;;;;;;5094686;28;20378;-77
2023/08/17 06:03:00;;;;;;;6.85;2.40;;;16.60;99.90;;;;;;5095417;28;20040;-78
2023/08/17 06:05:28;;;;;;;8.10;2.53;;;16.60;99.90;;;;;;5077265;28;20047;-77
2023/08/17 06:07:54;;;;;;;5.18;2.03;;;16.70;99.90;;;;;;5099560;28;20048;-77
2023/08/17 06:10:20;;;;;;;8.07;2.40;;;16.70;99.90;;;;;;5096408;28;20048;-77
2023/08/17 06:12:46;;;;;;;9.07;2.67;;;16.80;99.90;;;;;;5095344;28;20118;-76
2023/08/17 06:15:13;;;;;;;7.95;2.30;;;16.80;99.90;;;;;;5077646;28;20117;-76
2023/08/17 06:17:39;;;;;;;8.10;2.50;;;16.90;99.90;;;;;;5099363;28;20219;-76
2023/08/17 06:20:07;;;;;;;9.38;2.40;;;17.00;99.90;;;;;;5092740;28;20087;-76
2023/08/17 06:22:32;;;;;;;6.13;2.30;;;17.10;99.90;;;;;;5094113;28;20040;-76
2023/08/17 06:24:58;;;;;;;6.65;2.40;;;17.20;99.90;;;;;;5093953;28;20378;-78
2023/08/17 06:27:24;;;;;;;8.35;2.63;;;17.30;99.90;;;;;;5076643;28;20464;-76
2023/08/17 06:29:50;;;;;;;8.65;2.03;;;17.60;99.90;;;;;;5095836;28;20507;-75
2023/08/17 06:32:15;;;;;;;8.35;2.42;;;17.90;99.90;;;;;;5099090;28;20044;-77
2023/08/17 06:34:42;;;;;;;6.63;2.13;;;18.00;99.90;;;;;;5093466;28;20081;-75
2023/08/17 06:37:08;;;;;;;6.50;2.20;;;18.30;99.90;;;;;;5094077;28;20115;-74
2023/08/17 06:39:33;;;;;;;7.28;1.80;;;18.60;99.90;;;;;;5094897;28;20113;-75
2023/08/17 06:41:59;;;;;;;5.05;1.65;;;18.80;99.90;;;;;;5076152;28;20547;-76
2023/08/17 06:44:24;;;;;;;3.90;1.65;;;19.00;99.90;;;;;;5094788;28;20044;-76
2023/08/17 06:46:50;;;;;;;9.50;2.35;;;18.90;99.90;;;;;;5095291;28;20043;-77
2023/08/17 06:49:19;;;;;;;10.30;1.90;;;18.90;99.90;;;;;;5093900;28;20044;-76
2023/08/17 06:51:45;;;;;;;6.40;2.17;;;18.70;99.90;;;;;;5094278;28;20036;-75
2023/08/17 06:54:10;;;;;;;5.95;1.90;;;18.60;99.90;;;;;;5093686;28;20083;-76
2023/08/17 06:56:36;;;;;;;9.50;1.90;;;18.60;99.90;;;;;;5110231;28;20101;-76
2023/08/17 06:59:02;;;;;;;7.35;1.90;;;18.70;99.90;;;;;;5115203;28;20044;-76
2023/08/17 07:01:28;;;;;;;3.47;1.40;;;18.80;99.90;;;;;;5101503;28;20039;-77
2023/08/17 07:03:54;;;;;;;8.02;1.50;;;18.70;99.90;;;;;;5094728;28;20169;-77
2023/08/17 07:06:19;;;;;;;6.32;2.00;;;18.50;99.90;;;;;;5093296;28;20482;-75
2023/08/17 07:08:45;;;;;;;14.05;2.42;;;18.50;99.90;;;;;;5098052;28;20047;-76
2023/08/17 07:11:11;;;;;;;4.93;1.70;;;18.40;99.90;;;;;;5113988;28;20043;-76
2023/08/17 07:13:37;;;;;;;5.28;1.90;;;18.20;99.90;;;;;;5114753;28;20032;-75
2023/08/17 07:16:03;;;;;;;6.38;1.65;;;18.00;99.90;;;;;;5105716;28;20048;-76
2023/08/17 07:18:28;;;;;;;5.15;1.70;;;18.00;99.90;;;;;;5092219;28;20097;-76
2023/08/17 07:20:54;;;;;;;5.28;1.63;;;17.90;99.90;;;;;;5092845;28;20043;-75
2023/08/17 07:23:19;;;;;;;7.28;1.85;;;17.90;99.90;;;;;;5093257;28;20039;-75
2023/08/17 07:25:45;;;;;;;5.50;2.15;;;17.70;99.90;;;;;;5093775;28;20048;-75
2023/08/17 07:28:11;;;;;;;9.05;2.30;;;17.70;99.90;;;;;;5094521;28;20055;-76
2023/08/17 07:30:36;;;;;;;7.40;1.80;;;17.70;99.90;;;;;;5093559;28;20070;-75
2023/08/17 07:33:02;;;;;;;6.45;1.75;;;17.80;99.90;;;;;;5094257;28;20047;-78
2023/08/17 07:35:28;;;;;;;10.27;2.20;;;17.80;99.90;;;;;;5093911;28;20039;-76
2023/08/17 07:37:54;;;;;;;11.32;1.90;;;17.70;99.90;;;;;;5098691;28;20031;-76
2023/08/17 07:40:19;;;;;;;4.40;1.73;;;17.70;99.90;;;;;;5114199;28;20489;-77
2023/08/17 07:42:46;;;;;;;6.15;1.70;;;17.70;99.90;;;;;;5095813;28;20048;-76
2023/08/17 07:45:12;;;;;;;7.57;1.43;;;17.70;99.90;;;;;;5108583;28;20044;-77
2023/08/17 07:47:41;;;;;;;4.25;1.63;;;17.80;99.90;;;;;;5093065;28;20278;-78
2023/08/17 07:50:07;;;;;;;5.35;1.83;;;17.80;99.90;;;;;;5092721;28;20067;-76
2023/08/17 07:52:33;;;;;;;3.78;1.50;;;17.70;99.90;;;;;;5093418;28;20047;-76
2023/08/17 07:54:59;;;;;;;6.82;1.90;;;17.80;99.90;;;;;;5094012;28;20040;-76
2023/08/17 07:57:25;;;;;;;7.22;1.55;;;17.70;99.90;;;;;;5092078;28;20494;-76
2023/08/17 07:59:51;;;;;;;3.13;1.60;;;17.70;99.90;;;;;;5097913;28;20065;-76
2023/08/17 08:02:17;;;;;;;5.43;1.70;;;17.80;99.90;;;;;;5112737;28;20108;-75
2023/08/17 08:04:43;;;;;;;5.75;1.30;;;17.90;99.90;;;;;;5095174;28;20079;-75
2023/08/17 08:07:12;;;;;;;5.60;1.52;;;17.90;99.90;;;;;;5113714;28;20070;-75
2023/08/17 08:09:38;;;;;;;5.93;1.70;;;17.90;99.90;;;;;;5107841;28;20048;-76
2023/08/17 08:12:07;;;;;;;2.50;1.38;;;17.90;99.90;;;;;;5091940;28;20494;-76
2023/08/17 08:14:36;;;;;;;4.07;1.50;;;17.90;99.90;;;;;;5093447;28;20051;-75
2023/08/17 08:17:02;;;;;;;8.23;1.85;;;18.00;99.90;;;;;;5093989;28;20040;-76
2023/08/17 08:19:27;;;;;;;4.68;1.73;;;18.00;99.90;;;;;;5075713;28;20043;-75
2023/08/17 08:21:53;;;;;;;5.85;1.60;;;18.00;99.90;;;;;;5101824;28;20043;-77
2023/08/17 08:24:18;;;;;;;3.85;1.70;;;17.90;99.90;;;;;;5113687;28;20051;-76
2023/08/17 08:26:44;;;;;;;8.20;1.67;;;17.90;99.90;;;;;;5116395;28;20114;-76
2023/08/17 08:29:10;;;;;;;5.05;1.83;;;17.90;99.90;;;;;;5117060;28;20054;-76
2023/08/17 08:31:35;;;;;;;5.32;1.90;;;18.00;99.90;;;;;;5103792;28;20044;-76
2023/08/17 08:34:01;;;;;;;4.30;1.83;;;17.90;99.90;;;;;;5096131;28;20435;-75
2023/08/17 08:36:27;;;;;;;4.70;1.75;;;18.00;99.90;;;;;;5096644;28;20036;-76
2023/08/17 08:38:52;;;;;;;4.80;1.60;;;18.00;99.90;;;;;;5095339;28;20040;-76
2023/08/17 08:41:19;;;;;;;4.40;1.38;;;18.00;99.90;;;;;;5096703;28;20494;-76
2023/08/17 08:43:45;;;;;;;2.83;1.10;;;18.10;99.90;;;;;;5078306;28;20044;-76
2023/08/17 08:46:12;;;;;;;7.10;1.80;;;18.10;99.90;;;;;;5112635;28;20392;-75
2023/08/17 08:48:41;;;;;;;10.57;1.67;;;18.10;99.90;;;;;;5115703;28;20047;-75
2023/08/17 08:51:09;;;;;;;3.47;1.45;;;18.10;99.90;;;;;;5109223;28;20117;-75
2023/08/17 08:53:39;;;;;;;3.83;1.40;;;18.10;99.90;;;;;;5096078;28;20054;-77
2023/08/17 08:56:11;;;;;;;2.40;1.20;;;18.10;99.90;;;;;;5095676;28;20374;-77
2023/08/17 08:58:38;;;;;;;7.05;1.80;;;18.10;99.90;;;;;;5093974;28;20060;-76
2023/08/17 09:01:04;;;;;;;6.07;1.55;;;18.10;99.90;;;;;;5095676;28;20470;-75
2023/08/17 09:03:32;;;;;;;9.02;1.58;;;18.10;99.90;;;;;;5095836;28;20087;-75
2023/08/17 09:05:58;;;;;;;5.40;1.63;;;18.20;99.90;;;;;;5095833;28;20044;-75
2023/08/17 09:08:28;;;;;;;5.63;1.48;;;18.30;99.90;;;;;;5095560;28;20044;-75
2023/08/17 09:10:54;;;;;;;5.05;1.80;;;18.40;99.90;;;;;;5096978;28;20040;-77
2023/08/17 09:13:20;;;;;;;6.80;1.67;;;18.50;99.90;;;;;;5097100;28;20051;-78
2023/08/17 09:15:46;;;;;;;6.45;1.65;;;18.70;99.90;;;;;;5097938;28;20039;-76
2023/08/17 09:18:11;;;;;;;8.43;2.10;;;18.80;99.90;;;;;;5098728;28;20040;-76
2023/08/17 09:20:41;;;;;;;5.05;1.75;;;19.00;99.90;;;;;;5097123;28;20468;-76
2023/08/17 09:23:19;;;;;;;7.20;1.50;;;19.10;99.90;;;;;;5098684;28;20051;-75
2023/08/17 09:25:46;;;;;;;6.22;1.50;;;19.30;99.90;;;;;;5098255;28;20064;-75
2023/08/17 09:28:16;;;;;;;5.57;1.45;;;19.40;99.90;;;;;;5097077;28;20044;-77
2023/08/17 09:31:00;;;;;;;5.53;1.42;;;19.40;99.90;;;;;;5095208;28;20036;-76
2023/08/17 09:33:35;;;;;;;5.43;1.50;;;19.40;99.90;;;;;;5094863;28;20040;-76
2023/08/17 09:36:01;;;;;;;4.07;1.63;;;19.40;99.90;;;;;;5094529;28;20036;-76
2023/08/17 09:38:27;;;;;;;4.43;1.50;;;19.50;99.90;;;;;;5093907;28;20500;-77
2023/08/17 09:40:53;;;;;;;3.97;1.52;;;19.50;99.90;;;;;;5093535;28;20048;-76
2023/08/17 09:43:22;;;;;;;8.35;1.67;;;19.60;99.90;;;;;;5093445;28;20051;-76
2023/08/17 09:45:51;;;;;;;6.18;1.50;;;19.70;99.90;;;;;;5076520;28;20046;-76
2023/08/17 09:48:18;;;;;;;5.53;1.88;;;19.80;99.90;;;;;;5094833;28;20083;-76
2023/08/17 09:50:45;;;;;;;4.57;1.50;;;19.90;99.90;;;;;;5094955;28;20093;-76
2023/08/17 09:53:16;;;;;;;6.72;1.70;;;20.10;99.90;;;;;;5095238;28;20124;-77
2023/08/17 09:55:43;;;;;;;7.47;1.90;;;20.30;99.90;;;;;;5094880;28;20047;-76
2023/08/17 09:58:09;;;;;;;7.35;1.40;;;20.40;99.90;;;;;;5095097;28;20490;-78
2023/08/17 10:00:36;;;;;;;4.07;1.67;;;20.60;99.90;;;;;;5096130;28;20063;-77
2023/08/17 10:03:05;;;;;;;6.63;1.80;;;20.60;99.90;;;;;;5097388;28;20044;-76
2023/08/17 10:05:38;;;;;;;9.52;1.50;;;20.70;99.90;;;;;;5097268;28;20062;-77
2023/08/17 10:08:05;;;;;;;6.18;1.35;;;20.70;99.90;;;;;;5098164;28;20048;-78
2023/08/17 10:10:35;;;;;;;9.38;1.70;;;20.70;99.90;;;;;;5097941;28;20040;-76
2023/08/17 10:13:09;;;;;;;7.65;1.40;;;20.80;99.90;;;;;;5099761;28;20048;-77
2023/08/17 10:15:41;;;;;;;8.48;1.77;;;20.90;99.90;;;;;;5098793;28;20097;-76
2023/08/17 10:18:28;;;;;;;6.63;2.05;;;20.80;99.90;;;;;;5098580;28;20044;-77
2023/08/17 10:21:20;;;;;;;3.45;1.50;;;20.70;99.90;;;;;;5098772;28;20044;-77
2023/08/17 10:23:46;;;;;;;6.65;1.88;;;20.30;99.90;;;;;;5095551;28;20055;-78
2023/08/17 10:26:12;;;;;;;3.80;1.70;;;20.20;99.90;;;;;;5098122;28;20052;-77
2023/08/17 10:28:39;;;;;;;4.07;1.50;;;20.20;99.90;;;;;;5098904;28;20047;-78
2023/08/17 10:31:05;;;;;;;10.00;2.30;;;20.20;99.90;;;;;;5116170;28;20048;-76
2023/08/17 10:33:31;;;;;;;3.92;1.40;;;20.10;99.90;;;;;;5115829;28;20075;-75
2023/08/17 10:36:00;;;;;;;3.38;1.50;;;20.00;99.90;;;;;;5112978;28;20493;-75
2023/08/17 10:38:26;;;;;;;5.10;1.48;;;20.10;99.90;;;;;;5094040;28;20040;-75
2023/08/17 10:41:11;;;;;;;6.70;1.70;;;20.20;99.90;;;;;;5093563;28;20405;-76
2023/08/17 10:43:57;;;;;;;4.72;1.50;;;20.30;99.90;;;;;;5093915;28;20044;-77
2023/08/17 10:46:35;;;;;;;9.55;1.90;;;20.30;99.90;;;;;;5092569;28;20463;-75
2023/08/17 10:49:08;;;;;;;5.90;1.63;;;20.40;99.90;;;;;;5076484;28;20062;-76
2023/08/17 10:51:34;;;;;;;7.95;2.05;;;20.40;99.90;;;;;;5076369;28;20048;-77
2023/08/17 10:54:03;;;;;;;7.13;2.35;;;20.50;99.90;;;;;;5095938;28;20043;-75
2023/08/17 10:56:30;;;;;;;6.95;2.00;;;20.70;99.90;;;;;;5095098;28;20051;-76
2023/08/17 10:59:01;;;;;;;10.25;2.38;;;21.00;99.90;;;;;;5094288;28;20135;-77
2023/08/17 11:01:35;;;;;;;3.83;1.40;;;21.40;99.90;;;;;;5103373;28;20071;-77
2023/08/17 11:04:11;;;;;;;;;;;21.70;99.90;;;;;;5114258;28;20035;-76
2023/08/17 11:06:37;;;;;;;6.53;1.73;;;21.90;99.90;;;;;;5113558;28;19924;-76
2023/08/17 11:09:07;;;;;;;5.00;2.30;;;22.00;99.90;;;;;;5098957;28;20072;-77
2023/08/17 11:11:33;;;;;;;10.50;2.10;;;22.20;99.90;;;;;;5093623;28;20047;-75
2023/08/17 11:13:58;;;;;;;7.25;2.25;;;22.20;99.90;;;;;;5075196;28;20043;-75
2023/08/17 11:16:25;;;;;;;3.88;1.70;;;22.30;99.90;;;;;;5093941;28;20047;-76
2023/08/17 11:18:52;;;;;;;7.30;2.27;;;22.20;99.90;;;;;;5091675;28;20174;-76
2023/08/17 11:21:17;;;;;;;4.72;1.60;;;21.90;99.90;;;;;;5092474;28;20454;-75
2023/08/17 11:23:43;;;;;;;8.85;2.45;;;21.50;99.90;;;;;;5093389;28;20036;-76
2023/08/17 11:26:10;;;;;;;5.55;1.80;;;21.50;99.90;;;;;;5092179;28;20402;-77
2023/08/17 11:28:36;;;;;;;5.60;1.80;;;21.70;99.90;;;;;;5092732;28;20410;-74
2023/08/17 11:31:07;;;;;;;8.90;2.10;;;21.70;99.90;;;;;;5092742;28;20431;-77
2023/08/17 11:33:34;;;;;;;4.20;1.85;;;21.80;99.90;;;;;;5091408;28;20071;-76
2023/08/17 11:36:02;;;;;;;5.05;1.67;;;21.90;99.90;;;;;;5092776;28;20064;-74
2023/08/17 11:38:34;;;;;;;8.70;2.40;;;21.90;99.90;;;;;;5091914;28;20096;-76
2023/08/17 11:41:02;;;;;;;5.80;1.77;;;21.70;99.90;;;;;;5093037;28;20528;-75
2023/08/17 11:43:28;;;;;;;;;;;21.60;99.90;;;;;;5092473;28;20047;-75
2023/08/17 11:45:55;;;;;;;8.27;2.30;;;21.60;99.90;;;;;;5109798;28;20267;-75
2023/08/17 11:48:21;;;;;;;7.82;2.97;;;21.60;99.90;;;;;;5114214;28;20050;-76
2023/08/17 11:50:48;;;;;;;8.27;2.00;;;21.60;99.90;;;;;;5095490;28;20044;-76
2023/08/17 11:53:14;;;;;;;5.93;1.98;;;21.40;99.90;;;;;;5075499;28;20478;-75
2023/08/17 11:55:40;;;;;;;5.13;1.83;;;21.20;99.90;;;;;;5093220;28;20044;-76
2023/08/17 11:58:07;;;;;;;5.40;1.80;;;21.20;99.90;;;;;;5092018;28;20055;-76
2023/08/17 12:00:40;;;;;;;5.40;2.00;;;21.10;99.90;;;;;;5076276;28;20500;-75
2023/08/17 12:03:06;;;;;;;5.97;2.42;;;21.10;99.90;;;;;;5097037;28;20048;-76
2023/08/17 12:05:33;;;;;;;7.68;1.95;;;21.10;99.90;;;;;;5096881;28;20375;-76
2023/08/17 12:08:02;;;;;;;5.05;2.03;;;21.10;99.90;;;;;;5097310;28;20115;-77
2023/08/17 12:10:29;;;;;;;6.57;1.92;;;21.10;99.90;;;;;;5096856;28;20190;-76
2023/08/17 12:13:00;;;;;;;7.07;2.35;;;21.10;99.90;;;;;;5096555;28;20071;-76
2023/08/17 12:15:35;;;;;;;5.63;1.83;;;21.00;99.90;;;;;;5096538;28;20478;-75
2023/08/17 12:18:03;;;;;;;8.68;2.10;;;21.10;99.90;;;;;;5096340;28;20044;-77
2023/08/17 12:20:30;;;;;;;6.95;2.03;;;21.00;99.90;;;;;;5096554;28;20067;-76
2023/08/17 12:22:58;;;;;;;4.70;1.80;;;21.00;99.90;;;;;;5096187;28;20088;-76
2023/08/17 12:25:24;;;;;;;5.15;2.10;;;21.00;99.90;;;;;;5096427;28;20498;-75
2023/08/17 12:27:50;;;;;;;8.60;2.22;;;20.90;99.90;;;;;;5096919;28;20211;-75
2023/08/17 12:30:35;;;;;;;11.73;2.10;;;20.90;99.90;;;;;;5095239;28;20405;-75
2023/08/17 12:33:01;;;;;;;8.75;2.30;;;20.90;99.90;;;;;;5095206;28;20075;-76
2023/08/17 12:35:27;;;;;;;4.57;1.88;;;21.00;99.90;;;;;;5097097;28;20180;-76
2023/08/17 12:37:53;;;;;;;6.03;1.83;;;21.10;99.90;;;;;;5095407;28;20058;-78
2023/08/17 12:40:20;;;;;;;6.95;2.20;;;20.90;99.90;;;;;;5096302;28;20474;-76
2023/08/17 12:42:46;;;;;;;6.30;1.92;;;20.80;99.90;;;;;;5096220;28;20062;-76
2023/08/17 12:45:12;;;;;;;4.65;2.05;;;20.70;99.90;;;;;;5095843;28;20036;-77